createdAt,value
2023-02-22T00:02:11.176Z,12.15
2023-02-22T00:04:41.970Z,12.12
2023-02-22T00:07:09.137Z,12.06
2023-02-22T00:09:36.150Z,12.08
2023-02-22T00:12:03.323Z,12.10
2023-02-22T00:14:30.296Z,12.06
2023-02-22T00:16:59.918Z,12.08
2023-02-22T00:19:31.061Z,12.04
2023-02-22T00:21:58.487Z,12.06
2023-02-22T00:24:25.977Z,12.00
2023-02-22T00:26:55.718Z,11.98
2023-02-22T00:29:24.622Z,11.97
2023-02-22T00:31:51.801Z,11.99
2023-02-22T00:34:18.893Z,12.01
2023-02-22T00:36:49.651Z,11.98
2023-02-22T00:39:17.020Z,11.98
2023-02-22T00:41:44.400Z,11.96
2023-02-22T00:44:12.083Z,11.98
2023-02-22T00:46:40.378Z,11.92
2023-02-22T00:49:08.007Z,11.91
2023-02-22T00:51:36.050Z,11.91
2023-02-22T00:54:03.253Z,11.92
2023-02-22T00:56:30.347Z,11.96
2023-02-22T00:58:57.375Z,11.94
2023-02-22T01:01:24.551Z,11.97
2023-02-22T01:03:52.245Z,11.97
2023-02-22T01:06:20.119Z,11.92
2023-02-22T01:08:48.092Z,11.97
2023-02-22T01:11:17.533Z,11.93
2023-02-22T01:13:45.955Z,11.92
2023-02-22T01:16:13.265Z,11.91
2023-02-22T01:18:40.593Z,11.90
2023-02-22T01:21:09.159Z,11.92
2023-02-22T01:23:39.545Z,11.89
2023-02-22T01:26:07.055Z,11.85
2023-02-22T01:28:34.622Z,11.86
2023-02-22T01:31:03.202Z,11.86
2023-02-22T01:33:31.117Z,11.79
2023-02-22T01:36:00.216Z,11.77
2023-02-22T01:38:28.864Z,11.75
2023-02-22T01:40:56.510Z,11.80
2023-02-22T01:43:31.242Z,11.83
2023-02-22T01:46:06.516Z,11.80
2023-02-22T01:48:46.481Z,11.75
2023-02-22T01:51:19.743Z,11.75
2023-02-22T01:53:54.054Z,11.74
2023-02-22T01:56:22.583Z,11.67
2023-02-22T01:59:01.735Z,11.69
2023-02-22T02:01:30.434Z,11.72
2023-02-22T02:04:00.532Z,11.74
2023-02-22T02:06:32.454Z,11.77
2023-02-22T02:09:19.117Z,11.75
2023-02-22T02:11:47.018Z,11.74
2023-02-22T02:14:14.557Z,11.73
2023-02-22T02:16:50.936Z,11.72
2023-02-22T02:19:41.044Z,11.73
2023-02-22T02:22:17.255Z,11.73
2023-02-22T02:25:18.216Z,11.73
2023-02-22T02:28:10.301Z,11.73
2023-02-22T02:31:02.579Z,11.74
2023-02-22T02:33:59.824Z,11.74
2023-02-22T02:36:55.098Z,11.73
2023-02-22T02:39:36.101Z,11.73
2023-02-22T02:42:10.081Z,11.69
2023-02-22T02:44:52.474Z,11.70
2023-02-22T02:47:30.990Z,11.71
2023-02-22T02:50:10.956Z,11.72
2023-02-22T02:52:41.027Z,11.72
2023-02-22T02:55:11.403Z,11.72
2023-02-22T02:57:42.281Z,11.70
2023-02-22T03:00:22.635Z,11.72
2023-02-22T03:03:26.183Z,11.69
2023-02-22T03:06:27.238Z,11.68
2023-02-22T03:09:16.778Z,11.68
2023-02-22T03:12:30.277Z,11.67
2023-02-22T03:15:08.040Z,11.64
2023-02-22T03:18:04.505Z,11.65
2023-02-22T03:20:55.893Z,11.66
2023-02-22T03:24:02.436Z,11.67
2023-02-22T03:26:58.747Z,11.62
2023-02-22T03:29:28.901Z,11.60
2023-02-22T03:32:01.708Z,11.62
2023-02-22T03:34:48.042Z,11.61
2023-02-22T03:37:22.086Z,11.61
2023-02-22T03:39:54.730Z,11.60
2023-02-22T03:42:29.869Z,11.62
2023-02-22T03:45:00.705Z,11.56
2023-02-22T03:47:42.780Z,11.55
2023-02-22T03:50:25.394Z,11.56
2023-02-22T03:52:53.670Z,11.58
2023-02-22T03:55:29.448Z,11.60
2023-02-22T03:58:07.237Z,11.61
2023-02-22T04:00:35.867Z,11.59
2023-02-22T04:03:04.611Z,11.61
2023-02-22T04:05:32.459Z,11.61
2023-02-22T04:07:59.865Z,11.63
2023-02-22T04:10:28.055Z,11.61
2023-02-22T04:12:55.109Z,11.61
2023-02-22T04:15:24.827Z,11.63
2023-02-22T04:17:58.213Z,11.63
2023-02-22T04:20:25.713Z,11.62
2023-02-22T04:22:58.415Z,11.62
2023-02-22T04:25:25.445Z,11.62
2023-02-22T04:27:53.087Z,11.61
2023-02-22T04:30:30.268Z,11.60
2023-02-22T04:32:59.449Z,11.58
2023-02-22T04:35:26.573Z,11.56
2023-02-22T04:37:53.669Z,11.57
2023-02-22T04:40:20.947Z,11.57
2023-02-22T04:42:48.707Z,11.55
2023-02-22T04:45:16.225Z,11.51
2023-02-22T04:47:43.572Z,11.54
2023-02-22T04:50:12.895Z,11.54
2023-02-22T04:52:40.650Z,11.53
2023-02-22T04:55:08.492Z,11.50
2023-02-22T04:57:37.353Z,11.51
2023-02-22T05:00:06.915Z,11.51
2023-02-22T05:02:40.053Z,11.50
2023-02-22T05:05:07.976Z,11.50
2023-02-22T05:07:35.276Z,11.51
2023-02-22T05:10:03.026Z,11.53
2023-02-22T05:12:30.662Z,11.53
2023-02-22T05:14:57.698Z,11.52
2023-02-22T05:17:24.821Z,11.53
2023-02-22T05:19:51.924Z,11.54
2023-02-22T05:22:19.130Z,11.54
2023-02-22T05:24:46.224Z,11.53
2023-02-22T05:27:13.282Z,11.54
2023-02-22T05:29:40.728Z,11.51
2023-02-22T05:32:07.807Z,11.50
2023-02-22T05:34:34.897Z,11.47
2023-02-22T05:37:03.481Z,11.48
2023-02-22T05:39:32.009Z,11.44
2023-02-22T05:41:59.749Z,11.45
2023-02-22T05:44:28.033Z,11.43
2023-02-22T05:46:55.131Z,11.41
2023-02-22T05:49:22.232Z,11.40
2023-02-22T05:51:49.329Z,11.42
2023-02-22T05:54:16.722Z,11.40
2023-02-22T05:56:43.825Z,11.39
2023-02-22T05:59:10.871Z,11.38
2023-02-22T06:01:38.064Z,11.39
2023-02-22T06:04:05.253Z,11.38
2023-02-22T06:06:32.307Z,11.40
2023-02-22T06:08:59.392Z,11.38
2023-02-22T06:11:26.560Z,11.38
2023-02-22T06:13:54.424Z,11.37
2023-02-22T06:16:22.583Z,11.37
2023-02-22T06:18:50.520Z,11.36
2023-02-22T06:21:18.135Z,11.35
2023-02-22T06:23:45.561Z,11.34
2023-02-22T06:26:12.663Z,11.34
2023-02-22T06:28:39.706Z,11.34
2023-02-22T06:31:06.937Z,11.33
2023-02-22T06:33:34.022Z,11.34
2023-02-22T06:36:01.292Z,11.33
2023-02-22T06:38:28.867Z,11.32
2023-02-22T06:40:56.396Z,11.34
2023-02-22T06:43:27.664Z,11.33
2023-02-22T06:45:54.799Z,11.31
2023-02-22T06:48:22.094Z,11.31
2023-02-22T06:50:49.262Z,11.30
2023-02-22T06:53:16.403Z,11.28
2023-02-22T06:55:43.796Z,11.30
2023-02-22T06:58:11.399Z,11.29
2023-02-22T07:00:42.377Z,11.33
2023-02-22T07:03:12.522Z,11.26
2023-02-22T07:05:40.486Z,11.24
2023-02-22T07:08:08.068Z,11.19
2023-02-22T07:10:37.561Z,11.16
2023-02-22T07:13:06.630Z,11.19
2023-02-22T07:15:35.650Z,11.20
2023-02-22T07:18:03.029Z,11.19
2023-02-22T07:20:32.296Z,11.21
2023-02-22T07:23:00.298Z,11.30
2023-02-22T07:25:27.727Z,11.23
2023-02-22T07:27:54.780Z,11.19
2023-02-22T07:30:31.319Z,11.18
2023-02-22T07:33:02.206Z,11.18
2023-02-22T07:35:32.505Z,11.14
2023-02-22T07:38:00.213Z,11.16
2023-02-22T07:40:28.761Z,11.18
2023-02-22T07:43:27.767Z,11.16
2023-02-22T07:46:02.833Z,11.17
2023-02-22T07:48:32.282Z,11.18
2023-02-22T07:50:59.875Z,11.21
2023-02-22T07:53:33.533Z,11.24
2023-02-22T07:56:05.214Z,11.23
2023-02-22T07:58:32.886Z,11.26
2023-02-22T08:01:02.327Z,11.27
2023-02-22T08:03:38.221Z,11.30
2023-02-22T08:06:07.529Z,11.35
2023-02-22T08:08:34.691Z,11.31
2023-02-22T08:11:02.443Z,11.31
2023-02-22T08:13:30.013Z,11.24
2023-02-22T08:15:57.321Z,11.24
2023-02-22T08:18:25.617Z,11.24
2023-02-22T08:20:54.071Z,11.26
2023-02-22T08:23:25.323Z,11.25
2023-02-22T08:25:53.168Z,11.27
2023-02-22T08:28:23.787Z,11.30
2023-02-22T08:30:51.874Z,11.29
2023-02-22T08:33:19.936Z,11.28
2023-02-22T08:35:49.794Z,11.28
2023-02-22T08:38:27.891Z,11.30
2023-02-22T08:40:55.362Z,11.32
2023-02-22T08:43:23.635Z,11.35
2023-02-22T08:45:52.138Z,11.37
2023-02-22T08:48:20.289Z,11.40
2023-02-22T08:50:47.379Z,11.39
2023-02-22T08:53:16.484Z,11.49
2023-02-22T08:55:45.094Z,11.46
2023-02-22T08:58:13.283Z,11.50
2023-02-22T09:00:43.466Z,11.44
2023-02-22T09:03:14.076Z,11.44
2023-02-22T09:05:43.834Z,11.47
2023-02-22T09:08:11.153Z,11.44
2023-02-22T09:10:38.418Z,11.46
2023-02-22T09:13:05.857Z,11.48
2023-02-22T09:15:37.833Z,11.52
2023-02-22T09:18:08.542Z,11.55
2023-02-22T09:20:36.676Z,11.55
2023-02-22T09:23:06.344Z,11.58
2023-02-22T09:25:36.309Z,11.61
2023-02-22T09:28:03.479Z,11.63
2023-02-22T09:30:35.986Z,11.65
2023-02-22T09:33:16.306Z,11.67
2023-02-22T09:35:46.691Z,11.70
2023-02-22T09:38:23.157Z,11.72
2023-02-22T09:41:14.427Z,11.77
2023-02-22T09:44:07.123Z,11.74
2023-02-22T09:46:42.103Z,11.73
2023-02-22T09:49:47.474Z,11.78
2023-02-22T09:52:23.834Z,11.81
2023-02-22T09:55:05.559Z,11.83
2023-02-22T09:57:43.593Z,11.82
2023-02-22T10:00:22.849Z,11.82
2023-02-22T10:03:17.724Z,11.86
2023-02-22T10:05:57.049Z,11.89
2023-02-22T10:08:31.483Z,11.86
2023-02-22T10:11:30.821Z,11.84
2023-02-22T10:14:31.052Z,11.78
2023-02-22T10:17:06.267Z,11.91
2023-02-22T10:19:57.715Z,11.87
2023-02-22T10:22:56.971Z,11.85
2023-02-22T10:25:28.108Z,11.83
2023-02-22T10:27:59.547Z,11.81
2023-02-22T10:30:26.541Z,11.84
2023-02-22T10:33:41.606Z,11.81
2023-02-22T10:36:23.031Z,11.83
2023-02-22T10:39:07.976Z,11.91
2023-02-22T10:41:42.965Z,11.91
2023-02-22T10:44:10.516Z,11.87
2023-02-22T10:46:40.352Z,11.90
2023-02-22T10:49:08.059Z,11.93
2023-02-22T10:51:35.717Z,11.95
2023-02-22T10:54:15.525Z,11.99
2023-02-22T10:56:52.349Z,12.01
2023-02-22T10:59:36.468Z,12.03
2023-02-22T11:02:15.876Z,12.08
2023-02-22T11:04:54.926Z,12.11
2023-02-22T11:07:31.041Z,12.14
2023-02-22T11:10:11.104Z,12.16
2023-02-22T11:12:43.771Z,12.20
2023-02-22T11:15:16.970Z,12.24
2023-02-22T11:17:47.233Z,12.24
2023-02-22T11:20:35.902Z,12.29
2023-02-22T11:23:05.135Z,12.29
2023-02-22T11:25:36.726Z,12.32
2023-02-22T11:28:08.282Z,12.34
2023-02-22T11:30:36.244Z,12.34
2023-02-22T11:33:16.950Z,12.37
2023-02-22T11:35:55.412Z,12.40
2023-02-22T11:38:30.877Z,12.40
2023-02-22T11:41:06.134Z,12.44
2023-02-22T11:43:33.657Z,12.44
2023-02-22T11:46:12.718Z,12.43
2023-02-22T11:48:54.572Z,12.44
2023-02-22T11:52:03.363Z,12.45
2023-02-22T11:54:53.181Z,12.46
2023-02-22T11:58:08.607Z,12.49
2023-02-22T12:01:07.401Z,12.44
2023-02-22T12:04:26.038Z,12.50
2023-02-22T12:07:23.954Z,12.53
2023-02-22T12:10:21.465Z,12.55
2023-02-22T12:13:23.562Z,12.56
2023-02-22T12:16:40.418Z,12.56
2023-02-22T12:19:40.337Z,12.60
2023-02-22T12:22:23.017Z,12.59
2023-02-22T12:25:09.688Z,12.60
2023-02-22T12:27:53.090Z,12.63
2023-02-22T12:30:35.573Z,12.63
2023-02-22T12:33:15.842Z,12.63
2023-02-22T12:35:51.571Z,12.65
2023-02-22T12:38:44.927Z,12.66
2023-02-22T12:41:38.473Z,12.66
2023-02-22T12:44:39.596Z,12.66
2023-02-22T12:47:14.832Z,12.67
2023-02-22T12:49:59.429Z,12.66
2023-02-22T12:52:57.809Z,12.69
2023-02-22T12:55:31.711Z,12.70
2023-02-22T12:58:30.467Z,12.73
2023-02-22T13:01:22.321Z,12.76
2023-02-22T13:03:49.468Z,12.77
2023-02-22T13:06:27.905Z,12.81
2023-02-22T13:09:24.541Z,12.84
2023-02-22T13:12:09.716Z,12.85
2023-02-22T13:15:02.252Z,12.86
2023-02-22T13:18:01.491Z,12.86
2023-02-22T13:20:33.255Z,12.89
2023-02-22T13:23:29.803Z,12.90
2023-02-22T13:26:41.208Z,12.91
2023-02-22T13:29:19.753Z,12.93
2023-02-22T13:32:03.453Z,12.95
2023-02-22T13:34:48.547Z,12.98
2023-02-22T13:37:41.589Z,13.01
2023-02-22T13:40:36.627Z,13.08
2023-02-22T13:43:34.633Z,13.13
2023-02-22T13:46:20.258Z,13.16
2023-02-22T13:49:25.769Z,13.21
2023-02-22T13:51:59.117Z,13.24
2023-02-22T13:54:42.686Z,13.27
2023-02-22T13:57:34.246Z,13.30
2023-02-22T14:00:17.792Z,13.33
2023-02-22T14:03:08.283Z,13.33
2023-02-22T14:05:41.792Z,13.35
2023-02-22T14:08:31.754Z,13.37
2023-02-22T14:11:00.976Z,13.37
2023-02-22T14:13:30.654Z,13.39
2023-02-22T14:16:00.753Z,13.40
2023-02-22T14:18:31.653Z,13.42
2023-02-22T14:21:10.190Z,13.43
2023-02-22T14:23:48.848Z,13.44
2023-02-22T14:26:34.970Z,13.44
2023-02-22T14:29:17.111Z,13.45
2023-02-22T14:31:44.229Z,13.43
2023-02-22T14:34:17.556Z,13.43
2023-02-22T14:36:51.129Z,13.41
2023-02-22T14:39:32.223Z,13.42
2023-02-22T14:42:07.045Z,13.43
2023-02-22T14:44:56.635Z,13.44
2023-02-22T14:47:50.540Z,13.43
2023-02-22T14:50:30.146Z,13.41
2023-02-22T14:53:07.072Z,13.43
2023-02-22T14:55:43.085Z,13.42
2023-02-22T14:58:20.827Z,13.41
2023-02-22T15:00:53.181Z,13.42
2023-02-22T15:03:37.392Z,13.41
2023-02-22T15:06:20.352Z,13.40
2023-02-22T15:09:07.646Z,13.39
2023-02-22T15:11:35.638Z,13.39
2023-02-22T15:14:25.619Z,13.42
2023-02-22T15:16:57.030Z,13.42
2023-02-22T15:19:29.111Z,13.43
2023-02-22T15:21:59.346Z,13.45
2023-02-22T15:24:37.502Z,13.46
2023-02-22T15:27:19.622Z,13.46
2023-02-22T15:29:46.761Z,13.46
2023-02-22T15:32:32.164Z,13.46
2023-02-22T15:35:14.228Z,13.46
2023-02-22T15:37:41.353Z,13.45
2023-02-22T15:40:14.940Z,13.45
2023-02-22T15:42:47.852Z,13.46
2023-02-22T15:45:25.611Z,13.46
2023-02-22T15:47:56.244Z,13.45
2023-02-22T15:50:34.831Z,13.44
2023-02-22T15:53:08.888Z,13.43
2023-02-22T15:55:40.654Z,13.43
2023-02-22T15:58:25.428Z,13.42
2023-02-22T16:01:19.962Z,13.41
2023-02-22T16:04:00.670Z,13.39
2023-02-22T16:06:35.381Z,13.40
2023-02-22T16:09:09.688Z,13.37
2023-02-22T16:11:44.282Z,13.31
2023-02-22T16:14:42.896Z,13.32
2023-02-22T16:17:31.110Z,13.31
2023-02-22T16:20:02.182Z,13.32
2023-02-22T16:22:36.078Z,13.32
2023-02-22T16:25:24.962Z,13.31
2023-02-22T16:27:55.824Z,13.29
2023-02-22T16:30:36.139Z,13.29
2023-02-22T16:33:16.587Z,13.29
2023-02-22T16:35:52.169Z,13.27
2023-02-22T16:38:21.230Z,13.25
2023-02-22T16:40:55.283Z,13.24
2023-02-22T16:43:29.806Z,13.18
2023-02-22T16:45:57.342Z,13.17
2023-02-22T16:48:33.113Z,13.18
2023-02-22T16:51:07.765Z,13.15
2023-02-22T16:53:35.145Z,13.14
2023-02-22T16:56:09.237Z,13.14
2023-02-22T16:58:40.235Z,13.12
2023-02-22T17:01:07.854Z,13.11
2023-02-22T17:03:35.886Z,13.09
2023-02-22T17:06:03.157Z,13.10
2023-02-22T17:08:30.803Z,13.07
2023-02-22T17:11:00.788Z,13.06
2023-02-22T17:13:29.467Z,13.04
2023-02-22T17:15:57.599Z,13.03
2023-02-22T17:18:28.951Z,13.01
2023-02-22T17:20:56.960Z,12.99
2023-02-22T17:23:24.360Z,12.97
2023-02-22T17:25:59.257Z,12.96
2023-02-22T17:28:26.830Z,12.94
2023-02-22T17:30:59.112Z,12.92
2023-02-22T17:33:27.866Z,12.91
2023-02-22T17:35:58.003Z,12.89
2023-02-22T17:38:29.073Z,12.87
2023-02-22T17:41:01.410Z,12.87
2023-02-22T17:43:29.380Z,12.85
2023-02-22T17:45:57.223Z,12.85
2023-02-22T17:48:25.033Z,12.84
2023-02-22T17:50:53.060Z,12.82
2023-02-22T17:53:25.022Z,12.82
2023-02-22T17:55:52.635Z,12.81
2023-02-22T17:58:22.431Z,12.79
2023-02-22T18:00:51.505Z,12.78
2023-02-22T18:03:25.934Z,12.78
2023-02-22T18:05:59.786Z,12.77
2023-02-22T18:08:29.951Z,12.75
2023-02-22T18:10:57.173Z,12.74
2023-02-22T18:13:27.218Z,12.69
2023-02-22T18:16:00.157Z,12.67
2023-02-22T18:18:28.074Z,12.65
2023-02-22T18:20:59.951Z,12.65
2023-02-22T18:23:30.584Z,12.65
2023-02-22T18:26:23.023Z,12.63
2023-02-22T18:28:50.368Z,12.62
2023-02-22T18:31:20.345Z,12.63
2023-02-22T18:33:50.922Z,12.61
2023-02-22T18:36:25.410Z,12.60
2023-02-22T18:38:55.221Z,12.59
2023-02-22T18:41:27.004Z,12.56
2023-02-22T18:43:55.721Z,12.57
2023-02-22T18:46:24.731Z,12.56
2023-02-22T18:48:55.247Z,12.55
2023-02-22T18:51:23.805Z,12.53
2023-02-22T18:53:54.959Z,12.53
2023-02-22T18:56:22.463Z,12.53
2023-02-22T18:59:02.451Z,12.53
2023-02-22T19:01:31.445Z,12.51
2023-02-22T19:04:00.181Z,12.51
2023-02-22T19:06:27.415Z,12.51
2023-02-22T19:08:54.589Z,12.50
2023-02-22T19:11:24.245Z,12.50
2023-02-22T19:13:56.045Z,12.50
2023-02-22T19:16:25.661Z,12.49
2023-02-22T19:18:57.557Z,12.48
2023-02-22T19:21:27.651Z,12.46
2023-02-22T19:24:01.357Z,12.45
2023-02-22T19:26:29.548Z,12.45
2023-02-22T19:28:59.606Z,12.43
2023-02-22T19:31:31.546Z,12.42
2023-02-22T19:34:05.166Z,12.41
2023-02-22T19:36:32.724Z,12.41
2023-02-22T19:39:03.023Z,12.41
2023-02-22T19:41:31.570Z,12.39
2023-02-22T19:43:59.313Z,12.38
2023-02-22T19:46:26.771Z,12.38
2023-02-22T19:48:57.520Z,12.36
2023-02-22T19:51:27.991Z,12.36
2023-02-22T19:54:02.624Z,12.36
2023-02-22T19:56:31.447Z,12.36
2023-02-22T19:59:09.505Z,12.34
2023-02-22T20:01:37.649Z,12.33
2023-02-22T20:04:17.826Z,12.33
2023-02-22T20:06:46.437Z,12.32
2023-02-22T20:09:23.803Z,12.33
2023-02-22T20:11:54.374Z,12.32
2023-02-22T20:14:25.326Z,12.30
2023-02-22T20:16:55.883Z,12.31
2023-02-22T20:19:24.405Z,12.30
2023-02-22T20:21:55.851Z,12.30
2023-02-22T20:24:25.212Z,12.30
2023-02-22T20:26:55.870Z,12.28
2023-02-22T20:29:29.629Z,12.28
2023-02-22T20:31:59.631Z,12.27
2023-02-22T20:34:30.501Z,12.28
2023-02-22T20:36:57.650Z,12.27
2023-02-22T20:39:24.797Z,12.26
2023-02-22T20:41:52.708Z,12.26
2023-02-22T20:44:19.978Z,12.26
2023-02-22T20:46:48.176Z,12.26
2023-02-22T20:49:19.062Z,12.25
2023-02-22T20:51:48.180Z,12.25
2023-02-22T20:54:16.639Z,12.25
2023-02-22T20:56:45.769Z,12.25
2023-02-22T20:59:16.257Z,12.24
2023-02-22T21:01:43.940Z,12.23
2023-02-22T21:04:12.089Z,12.24
2023-02-22T21:06:41.293Z,12.25
2023-02-22T21:09:15.141Z,12.25
2023-02-22T21:11:42.932Z,12.23
2023-02-22T21:14:18.632Z,12.21
2023-02-22T21:16:49.116Z,12.20
2023-02-22T21:19:26.590Z,12.19
2023-02-22T21:21:56.255Z,12.19
2023-02-22T21:24:26.194Z,12.19
2023-02-22T21:26:53.833Z,12.19
2023-02-22T21:29:25.377Z,12.18
2023-02-22T21:31:56.594Z,12.19
2023-02-22T21:34:25.940Z,12.19
2023-02-22T21:36:53.376Z,12.18
2023-02-22T21:39:20.882Z,12.18
2023-02-22T21:41:51.438Z,12.19
2023-02-22T21:44:19.411Z,12.19
2023-02-22T21:46:49.680Z,12.18
2023-02-22T21:49:17.520Z,12.17
2023-02-22T21:51:45.003Z,12.18
2023-02-22T21:54:13.228Z,12.18
2023-02-22T21:56:43.283Z,12.17
2023-02-22T21:59:14.323Z,12.15
2023-02-22T22:01:56.098Z,12.15
2023-02-22T22:04:28.662Z,12.14
2023-02-22T22:07:01.418Z,12.13
2023-02-22T22:09:33.054Z,12.15
2023-02-22T22:12:05.611Z,12.14
2023-02-22T22:14:35.133Z,12.16
2023-02-22T22:17:05.721Z,12.14
2023-02-22T22:19:40.607Z,12.13
2023-02-22T22:22:08.032Z,12.11
2023-02-22T22:24:35.278Z,12.10
2023-02-22T22:27:06.193Z,12.11
2023-02-22T22:29:34.892Z,12.10
2023-02-22T22:32:03.347Z,12.07
2023-02-22T22:34:34.540Z,12.04
2023-02-22T22:37:01.714Z,12.02
2023-02-22T22:39:30.123Z,12.02
2023-02-22T22:41:57.103Z,12.02
2023-02-22T22:44:24.238Z,12.02
2023-02-22T22:46:54.786Z,12.02
2023-02-22T22:49:23.718Z,12.01
2023-02-22T22:51:51.307Z,12.00
2023-02-22T22:54:18.496Z,12.00
2023-02-22T22:56:46.534Z,12.00
2023-02-22T22:59:14.016Z,12.00
2023-02-22T23:01:44.718Z,12.01
2023-02-22T23:04:18.675Z,12.02
2023-02-22T23:06:52.089Z,12.02
2023-02-22T23:09:35.048Z,12.01
2023-02-22T23:12:09.331Z,11.99
2023-02-22T23:14:39.349Z,11.93
2023-02-22T23:17:16.043Z,11.95
2023-02-22T23:19:45.019Z,11.96
2023-02-22T23:22:15.486Z,11.97
2023-02-22T23:24:44.598Z,11.97
2023-02-22T23:27:12.347Z,11.97
2023-02-22T23:29:41.800Z,11.97
2023-02-22T23:32:10.242Z,11.96
2023-02-22T23:34:41.146Z,11.97
2023-02-22T23:37:10.758Z,11.95
2023-02-22T23:39:38.724Z,11.95
2023-02-22T23:42:08.822Z,11.92
2023-02-22T23:44:36.111Z,11.94
2023-02-22T23:47:03.908Z,11.91
2023-02-22T23:49:35.944Z,11.91
2023-02-22T23:52:08.138Z,11.95
2023-02-22T23:54:44.042Z,11.90
2023-02-22T23:57:11.788Z,11.85
2023-02-22T23:59:40.538Z,11.77
